sensor_id;sensor_type;location;lat;lon;timestamp;P1;durP1;ratioP1;P2;durP2;ratioP2
20739;SDS011;10530;49.968;19.844;2023-01-08T00:03:23;71.82;;;22.98;;
20739;SDS011;10530;49.968;19.844;2023-01-08T00:08:27;65.80;;;25.67;;
20739;SDS011;10530;49.968;19.844;2023-01-08T00:13:30;63.28;;;22.40;;
20739;SDS011;10530;49.968;19.844;2023-01-08T00:18:33;51.30;;;21.55;;
20739;SDS011;10530;49.968;19.844;2023-01-08T00:23:36;57.60;;;23.73;;
20739;SDS011;10530;49.968;19.844;2023-01-08T00:28:39;65.68;;;24.38;;
20739;SDS011;10530;49.968;19.844;2023-01-08T00:33:42;61.70;;;22.90;;
20739;SDS011;10530;49.968;19.844;2023-01-08T00:38:45;65.18;;;23.55;;
20739;SDS011;10530;49.968;19.844;2023-01-08T00:43:48;50.80;;;20.05;;
20739;SDS011;10530;49.968;19.844;2023-01-08T00:48:51;57.13;;;20.73;;
20739;SDS011;10530;49.968;19.844;2023-01-08T00:53:54;41.28;;;16.23;;
20739;SDS011;10530;49.968;19.844;2023-01-08T00:58:57;44.97;;;17.27;;
20739;SDS011;10530;49.968;19.844;2023-01-08T01:04:00;42.67;;;17.08;;
20739;SDS011;10530;49.968;19.844;2023-01-08T01:09:02;50.85;;;19.83;;
20739;SDS011;10530;49.968;19.844;2023-01-08T01:14:05;51.70;;;20.53;;
20739;SDS011;10530;49.968;19.844;2023-01-08T01:19:08;49.53;;;18.35;;
20739;SDS011;10530;49.968;19.844;2023-01-08T01:24:11;44.03;;;18.40;;
20739;SDS011;10530;49.968;19.844;2023-01-08T01:29:14;43.83;;;17.67;;
20739;SDS011;10530;49.968;19.844;2023-01-08T01:34:17;53.15;;;19.42;;
20739;SDS011;10530;49.968;19.844;2023-01-08T01:39:19;38.03;;;17.03;;
20739;SDS011;10530;49.968;19.844;2023-01-08T01:44:42;45.63;;;17.73;;
20739;SDS011;10530;49.968;19.844;2023-01-08T01:49:49;43.70;;;17.10;;
20739;SDS011;10530;49.968;19.844;2023-01-08T01:55:05;43.42;;;18.20;;
20739;SDS011;10530;49.968;19.844;2023-01-08T02:00:09;48.58;;;18.77;;
20739;SDS011;10530;49.968;19.844;2023-01-08T02:05:12;39.27;;;16.00;;
20739;SDS011;10530;49.968;19.844;2023-01-08T02:10:16;40.28;;;17.05;;
20739;SDS011;10530;49.968;19.844;2023-01-08T02:15:21;44.40;;;15.53;;
20739;SDS011;10530;49.968;19.844;2023-01-08T02:20:35;46.72;;;17.27;;
20739;SDS011;10530;49.968;19.844;2023-01-08T02:31:07;37.87;;;16.43;;
20739;SDS011;10530;49.968;19.844;2023-01-08T02:36:24;39.08;;;14.35;;
20739;SDS011;10530;49.968;19.844;2023-01-08T02:47:04;47.85;;;18.13;;
20739;SDS011;10530;49.968;19.844;2023-01-08T02:52:10;46.22;;;17.77;;
20739;SDS011;10530;49.968;19.844;2023-01-08T02:57:16;38.30;;;15.87;;
20739;SDS011;10530;49.968;19.844;2023-01-08T03:02:20;42.47;;;16.52;;
20739;SDS011;10530;49.968;19.844;2023-01-08T03:07:24;41.17;;;16.33;;
20739;SDS011;10530;49.968;19.844;2023-01-08T03:12:37;40.10;;;15.98;;
20739;SDS011;10530;49.968;19.844;2023-01-08T03:17:57;45.70;;;16.58;;
20739;SDS011;10530;49.968;19.844;2023-01-08T03:23:06;43.60;;;15.50;;
20739;SDS011;10530;49.968;19.844;2023-01-08T03:28:19;38.97;;;15.90;;
20739;SDS011;10530;49.968;19.844;2023-01-08T03:33:25;34.10;;;13.93;;
20739;SDS011;10530;49.968;19.844;2023-01-08T03:38:35;44.45;;;14.77;;
20739;SDS011;10530;49.968;19.844;2023-01-08T03:43:40;35.33;;;13.98;;
20739;SDS011;10530;49.968;19.844;2023-01-08T03:48:43;39.13;;;14.73;;
20739;SDS011;10530;49.968;19.844;2023-01-08T03:53:47;37.10;;;13.82;;
20739;SDS011;10530;49.968;19.844;2023-01-08T03:58:51;33.00;;;13.30;;
20739;SDS011;10530;49.968;19.844;2023-01-08T04:03:54;33.78;;;13.05;;
20739;SDS011;10530;49.968;19.844;2023-01-08T04:08:57;28.83;;;13.80;;
20739;SDS011;10530;49.968;19.844;2023-01-08T04:14:00;20.37;;;9.63;;
20739;SDS011;10530;49.968;19.844;2023-01-08T04:19:03;23.60;;;10.30;;
20739;SDS011;10530;49.968;19.844;2023-01-08T04:24:06;25.97;;;10.77;;
20739;SDS011;10530;49.968;19.844;2023-01-08T04:29:09;26.70;;;10.73;;
20739;SDS011;10530;49.968;19.844;2023-01-08T04:34:13;24.52;;;8.77;;
20739;SDS011;10530;49.968;19.844;2023-01-08T04:39:16;21.97;;;9.97;;
20739;SDS011;10530;49.968;19.844;2023-01-08T04:44:18;24.70;;;9.43;;
20739;SDS011;10530;49.968;19.844;2023-01-08T04:49:21;27.50;;;7.30;;
20739;SDS011;10530;49.968;19.844;2023-01-08T04:54:24;27.92;;;10.50;;
20739;SDS011;10530;49.968;19.844;2023-01-08T04:59:27;29.25;;;10.10;;
20739;SDS011;10530;49.968;19.844;2023-01-08T05:04:29;23.70;;;10.00;;
20739;SDS011;10530;49.968;19.844;2023-01-08T05:09:32;25.10;;;9.10;;
20739;SDS011;10530;49.968;19.844;2023-01-08T05:14:35;28.37;;;8.63;;
20739;SDS011;10530;49.968;19.844;2023-01-08T05:19:38;21.38;;;9.90;;
20739;SDS011;10530;49.968;19.844;2023-01-08T05:24:40;27.98;;;10.55;;
20739;SDS011;10530;49.968;19.844;2023-01-08T05:29:43;21.13;;;10.43;;
20739;SDS011;10530;49.968;19.844;2023-01-08T05:34:46;22.10;;;8.18;;
20739;SDS011;10530;49.968;19.844;2023-01-08T05:39:48;26.23;;;9.80;;
20739;SDS011;10530;49.968;19.844;2023-01-08T05:44:51;26.77;;;11.10;;
20739;SDS011;10530;49.968;19.844;2023-01-08T05:49:54;21.88;;;9.68;;
20739;SDS011;10530;49.968;19.844;2023-01-08T05:54:57;24.53;;;9.10;;
20739;SDS011;10530;49.968;19.844;2023-01-08T06:00:01;27.25;;;10.93;;
20739;SDS011;10530;49.968;19.844;2023-01-08T06:05:12;23.23;;;10.27;;
20739;SDS011;10530;49.968;19.844;2023-01-08T06:10:14;27.55;;;9.70;;
20739;SDS011;10530;49.968;19.844;2023-01-08T06:15:17;28.35;;;11.18;;
20739;SDS011;10530;49.968;19.844;2023-01-08T06:20:20;21.70;;;10.23;;
20739;SDS011;10530;49.968;19.844;2023-01-08T06:25:23;29.38;;;9.52;;
20739;SDS011;10530;49.968;19.844;2023-01-08T06:30:26;19.07;;;9.23;;
20739;SDS011;10530;49.968;19.844;2023-01-08T06:35:28;19.27;;;8.30;;
20739;SDS011;10530;49.968;19.844;2023-01-08T06:40:31;27.92;;;11.27;;
20739;SDS011;10530;49.968;19.844;2023-01-08T06:45:34;18.17;;;8.50;;
20739;SDS011;10530;49.968;19.844;2023-01-08T06:50:36;29.90;;;11.05;;
20739;SDS011;10530;49.968;19.844;2023-01-08T06:55:39;23.07;;;9.40;;
20739;SDS011;10530;49.968;19.844;2023-01-08T07:00:42;15.50;;;6.82;;
20739;SDS011;10530;49.968;19.844;2023-01-08T07:05:45;33.67;;;13.10;;
20739;SDS011;10530;49.968;19.844;2023-01-08T07:10:48;23.03;;;10.17;;
20739;SDS011;10530;49.968;19.844;2023-01-08T07:15:51;36.17;;;11.77;;
20739;SDS011;10530;49.968;19.844;2023-01-08T07:20:54;27.20;;;11.50;;
20739;SDS011;10530;49.968;19.844;2023-01-08T07:26:04;22.10;;;10.48;;
20739;SDS011;10530;49.968;19.844;2023-01-08T07:31:11;32.65;;;13.38;;
20739;SDS011;10530;49.968;19.844;2023-01-08T07:36:14;35.03;;;13.13;;
20739;SDS011;10530;49.968;19.844;2023-01-08T07:41:18;28.48;;;11.70;;
20739;SDS011;10530;49.968;19.844;2023-01-08T07:46:21;31.73;;;13.07;;
20739;SDS011;10530;49.968;19.844;2023-01-08T07:51:24;29.27;;;10.75;;
20739;SDS011;10530;49.968;19.844;2023-01-08T07:56:28;38.28;;;15.68;;
20739;SDS011;10530;49.968;19.844;2023-01-08T08:01:30;32.03;;;12.83;;
20739;SDS011;10530;49.968;19.844;2023-01-08T08:06:33;36.22;;;14.13;;
20739;SDS011;10530;49.968;19.844;2023-01-08T08:11:36;34.87;;;15.10;;
20739;SDS011;10530;49.968;19.844;2023-01-08T08:16:39;38.95;;;16.45;;
20739;SDS011;10530;49.968;19.844;2023-01-08T08:21:42;37.95;;;14.68;;
20739;SDS011;10530;49.968;19.844;2023-01-08T08:26:45;44.10;;;18.83;;
20739;SDS011;10530;49.968;19.844;2023-01-08T08:31:47;37.33;;;16.15;;
20739;SDS011;10530;49.968;19.844;2023-01-08T08:36:51;41.63;;;17.27;;
20739;SDS011;10530;49.968;19.844;2023-01-08T08:41:53;38.35;;;16.65;;
20739;SDS011;10530;49.968;19.844;2023-01-08T08:46:56;48.42;;;18.23;;
20739;SDS011;10530;49.968;19.844;2023-01-08T08:51:59;34.70;;;15.53;;
20739;SDS011;10530;49.968;19.844;2023-01-08T08:57:02;40.20;;;18.10;;
20739;SDS011;10530;49.968;19.844;2023-01-08T09:02:05;27.23;;;12.13;;
20739;SDS011;10530;49.968;19.844;2023-01-08T09:07:09;22.77;;;11.05;;
20739;SDS011;10530;49.968;19.844;2023-01-08T09:12:12;21.42;;;10.02;;
20739;SDS011;10530;49.968;19.844;2023-01-08T09:17:15;25.87;;;11.40;;
20739;SDS011;10530;49.968;19.844;2023-01-08T09:22:18;22.05;;;10.23;;
20739;SDS011;10530;49.968;19.844;2023-01-08T09:27:21;22.80;;;10.83;;
20739;SDS011;10530;49.968;19.844;2023-01-08T09:32:24;23.17;;;9.45;;
20739;SDS011;10530;49.968;19.844;2023-01-08T09:37:27;22.30;;;9.80;;
20739;SDS011;10530;49.968;19.844;2023-01-08T09:42:30;25.03;;;10.87;;
20739;SDS011;10530;49.968;19.844;2023-01-08T09:47:37;19.60;;;9.00;;
20739;SDS011;10530;49.968;19.844;2023-01-08T09:52:44;25.03;;;9.80;;
20739;SDS011;10530;49.968;19.844;2023-01-08T09:57:47;20.65;;;9.48;;
20739;SDS011;10530;49.968;19.844;2023-01-08T10:02:51;29.67;;;11.30;;
20739;SDS011;10530;49.968;19.844;2023-01-08T10:07:55;27.80;;;9.97;;
20739;SDS011;10530;49.968;19.844;2023-01-08T10:12:59;24.52;;;10.65;;
20739;SDS011;10530;49.968;19.844;2023-01-08T10:18:11;24.77;;;9.80;;
20739;SDS011;10530;49.968;19.844;2023-01-08T10:23:16;23.02;;;9.77;;
20739;SDS011;10530;49.968;19.844;2023-01-08T10:28:28;23.77;;;10.27;;
20739;SDS011;10530;49.968;19.844;2023-01-08T10:33:42;23.60;;;9.83;;
20739;SDS011;10530;49.968;19.844;2023-01-08T10:38:58;26.77;;;10.95;;
20739;SDS011;10530;49.968;19.844;2023-01-08T10:44:03;25.33;;;11.57;;
20739;SDS011;10530;49.968;19.844;2023-01-08T10:49:14;26.23;;;11.52;;
20739;SDS011;10530;49.968;19.844;2023-01-08T10:59:38;23.73;;;10.03;;
20739;SDS011;10530;49.968;19.844;2023-01-08T11:04:43;26.17;;;10.70;;
20739;SDS011;10530;49.968;19.844;2023-01-08T11:09:52;21.93;;;10.33;;
20739;SDS011;10530;49.968;19.844;2023-01-08T11:14:56;22.52;;;9.38;;
20739;SDS011;10530;49.968;19.844;2023-01-08T11:20:09;21.27;;;9.25;;
20739;SDS011;10530;49.968;19.844;2023-01-08T11:25:28;27.57;;;11.70;;
20739;SDS011;10530;49.968;19.844;2023-01-08T11:30:32;22.50;;;10.25;;
20739;SDS011;10530;49.968;19.844;2023-01-08T11:35:40;21.40;;;10.57;;
20739;SDS011;10530;49.968;19.844;2023-01-08T12:02:32;21.50;;;10.67;;
20739;SDS011;10530;49.968;19.844;2023-01-08T12:07:49;19.25;;;10.02;;
20739;SDS011;10530;49.968;19.844;2023-01-08T12:18:46;19.40;;;9.93;;
20739;SDS011;10530;49.968;19.844;2023-01-08T12:34:40;21.20;;;9.32;;
20739;SDS011;10530;49.968;19.844;2023-01-08T12:39:57;18.30;;;8.80;;
20739;SDS011;10530;49.968;19.844;2023-01-08T12:45:13;21.43;;;9.23;;
20739;SDS011;10530;49.968;19.844;2023-01-08T12:56:04;18.23;;;8.27;;
20739;SDS011;10530;49.968;19.844;2023-01-08T13:06:50;17.38;;;8.63;;
20739;SDS011;10530;49.968;19.844;2023-01-08T13:11:55;20.50;;;8.97;;
20739;SDS011;10530;49.968;19.844;2023-01-08T13:17:04;20.40;;;9.57;;
20739;SDS011;10530;49.968;19.844;2023-01-08T13:22:23;18.23;;;9.03;;
20739;SDS011;10530;49.968;19.844;2023-01-08T13:27:29;21.83;;;9.20;;
20739;SDS011;10530;49.968;19.844;2023-01-08T13:32:42;21.75;;;8.18;;
20739;SDS011;10530;49.968;19.844;2023-01-08T13:37:49;19.73;;;8.60;;
20739;SDS011;10530;49.968;19.844;2023-01-08T13:48:22;17.73;;;7.77;;
20739;SDS011;10530;49.968;19.844;2023-01-08T13:53:26;19.40;;;9.05;;
20739;SDS011;10530;49.968;19.844;2023-01-08T13:58:35;20.33;;;8.73;;
20739;SDS011;10530;49.968;19.844;2023-01-08T14:03:45;21.43;;;9.43;;
20739;SDS011;10530;49.968;19.844;2023-01-08T14:08:49;20.60;;;8.43;;
20739;SDS011;10530;49.968;19.844;2023-01-08T14:13:53;20.73;;;8.13;;
20739;SDS011;10530;49.968;19.844;2023-01-08T14:18:58;18.70;;;7.95;;
20739;SDS011;10530;49.968;19.844;2023-01-08T14:24:03;18.45;;;8.00;;
20739;SDS011;10530;49.968;19.844;2023-01-08T14:29:13;22.53;;;8.47;;
20739;SDS011;10530;49.968;19.844;2023-01-08T14:34:21;18.67;;;7.90;;
20739;SDS011;10530;49.968;19.844;2023-01-08T14:39:35;18.97;;;8.47;;
20739;SDS011;10530;49.968;19.844;2023-01-08T14:44:40;22.48;;;8.13;;
20739;SDS011;10530;49.968;19.844;2023-01-08T14:49:50;22.23;;;9.57;;
20739;SDS011;10530;49.968;19.844;2023-01-08T14:54:55;26.57;;;10.60;;
20739;SDS011;10530;49.968;19.844;2023-01-08T15:00:01;25.55;;;10.30;;
20739;SDS011;10530;49.968;19.844;2023-01-08T15:05:15;24.70;;;10.17;;
20739;SDS011;10530;49.968;19.844;2023-01-08T15:10:45;24.27;;;9.40;;
20739;SDS011;10530;49.968;19.844;2023-01-08T15:16:09;26.63;;;9.30;;
20739;SDS011;10530;49.968;19.844;2023-01-08T15:21:20;22.73;;;9.50;;
20739;SDS011;10530;49.968;19.844;2023-01-08T15:26:24;21.98;;;9.95;;
20739;SDS011;10530;49.968;19.844;2023-01-08T15:31:29;23.67;;;10.23;;
20739;SDS011;10530;49.968;19.844;2023-01-08T15:36:41;27.13;;;12.27;;
20739;SDS011;10530;49.968;19.844;2023-01-08T15:41:44;28.23;;;12.55;;
20739;SDS011;10530;49.968;19.844;2023-01-08T15:47:06;27.93;;;10.37;;
20739;SDS011;10530;49.968;19.844;2023-01-08T15:52:09;29.45;;;11.68;;
20739;SDS011;10530;49.968;19.844;2023-01-08T15:57:12;37.33;;;14.13;;
20739;SDS011;10530;49.968;19.844;2023-01-08T16:02:15;34.78;;;15.10;;
20739;SDS011;10530;49.968;19.844;2023-01-08T16:07:18;41.33;;;16.70;;
20739;SDS011;10530;49.968;19.844;2023-01-08T16:12:21;41.00;;;17.00;;
20739;SDS011;10530;49.968;19.844;2023-01-08T16:17:24;46.88;;;18.20;;
20739;SDS011;10530;49.968;19.844;2023-01-08T16:22:26;42.33;;;19.67;;
20739;SDS011;10530;49.968;19.844;2023-01-08T16:27:29;39.60;;;16.65;;
20739;SDS011;10530;49.968;19.844;2023-01-08T16:32:33;31.25;;;13.68;;
20739;SDS011;10530;49.968;19.844;2023-01-08T16:37:36;37.60;;;15.33;;
20739;SDS011;10530;49.968;19.844;2023-01-08T16:42:41;34.67;;;13.80;;
20739;SDS011;10530;49.968;19.844;2023-01-08T16:47:44;30.93;;;13.83;;
20739;SDS011;10530;49.968;19.844;2023-01-08T16:52:46;37.08;;;13.60;;
20739;SDS011;10530;49.968;19.844;2023-01-08T16:57:51;34.25;;;13.20;;
20739;SDS011;10530;49.968;19.844;2023-01-08T17:02:56;35.73;;;13.30;;
20739;SDS011;10530;49.968;19.844;2023-01-08T17:07:59;34.83;;;13.52;;
20739;SDS011;10530;49.968;19.844;2023-01-08T17:13:02;31.20;;;12.93;;
20739;SDS011;10530;49.968;19.844;2023-01-08T17:18:04;31.35;;;11.75;;
20739;SDS011;10530;49.968;19.844;2023-01-08T17:23:07;37.20;;;12.60;;
20739;SDS011;10530;49.968;19.844;2023-01-08T17:28:10;29.77;;;13.13;;
20739;SDS011;10530;49.968;19.844;2023-01-08T17:33:13;38.47;;;16.23;;
20739;SDS011;10530;49.968;19.844;2023-01-08T17:38:15;80.90;;;27.97;;
20739;SDS011;10530;49.968;19.844;2023-01-08T17:43:18;58.50;;;24.05;;
20739;SDS011;10530;49.968;19.844;2023-01-08T17:48:21;57.35;;;19.45;;
20739;SDS011;10530;49.968;19.844;2023-01-08T17:53:24;70.57;;;22.27;;
20739;SDS011;10530;49.968;19.844;2023-01-08T17:58:27;77.97;;;26.15;;
20739;SDS011;10530;49.968;19.844;2023-01-08T18:03:30;90.17;;;29.73;;
20739;SDS011;10530;49.968;19.844;2023-01-08T18:08:33;89.55;;;32.70;;
20739;SDS011;10530;49.968;19.844;2023-01-08T18:13:36;80.38;;;28.83;;
20739;SDS011;10530;49.968;19.844;2023-01-08T18:18:39;62.83;;;24.33;;
20739;SDS011;10530;49.968;19.844;2023-01-08T18:23:42;72.20;;;26.83;;
20739;SDS011;10530;49.968;19.844;2023-01-08T18:28:45;62.67;;;24.57;;
20739;SDS011;10530;49.968;19.844;2023-01-08T18:33:48;64.50;;;26.15;;
20739;SDS011;10530;49.968;19.844;2023-01-08T18:38:52;51.17;;;21.67;;
20739;SDS011;10530;49.968;19.844;2023-01-08T18:43:58;57.63;;;22.17;;
20739;SDS011;10530;49.968;19.844;2023-01-08T18:49:02;44.92;;;19.73;;
20739;SDS011;10530;49.968;19.844;2023-01-08T18:54:05;40.83;;;17.63;;
20739;SDS011;10530;49.968;19.844;2023-01-08T18:59:09;41.35;;;16.17;;
20739;SDS011;10530;49.968;19.844;2023-01-08T19:04:13;46.85;;;17.92;;
20739;SDS011;10530;49.968;19.844;2023-01-08T19:09:19;42.27;;;17.60;;
20739;SDS011;10530;49.968;19.844;2023-01-08T19:14:23;38.83;;;17.02;;
20739;SDS011;10530;49.968;19.844;2023-01-08T19:19:26;44.97;;;17.97;;
20739;SDS011;10530;49.968;19.844;2023-01-08T19:24:30;48.75;;;17.30;;
20739;SDS011;10530;49.968;19.844;2023-01-08T19:29:33;38.20;;;16.17;;
20739;SDS011;10530;49.968;19.844;2023-01-08T19:34:36;42.73;;;19.67;;
20739;SDS011;10530;49.968;19.844;2023-01-08T19:39:39;35.00;;;14.45;;
20739;SDS011;10530;49.968;19.844;2023-01-08T19:44:42;42.07;;;17.40;;
20739;SDS011;10530;49.968;19.844;2023-01-08T19:49:45;52.35;;;19.40;;
20739;SDS011;10530;49.968;19.844;2023-01-08T19:54:49;45.78;;;18.17;;
20739;SDS011;10530;49.968;19.844;2023-01-08T19:59:52;52.03;;;18.93;;
20739;SDS011;10530;49.968;19.844;2023-01-08T20:04:55;64.75;;;22.92;;
20739;SDS011;10530;49.968;19.844;2023-01-08T20:09:58;57.97;;;19.37;;
20739;SDS011;10530;49.968;19.844;2023-01-08T20:15:02;63.58;;;23.60;;
20739;SDS011;10530;49.968;19.844;2023-01-08T20:20:07;73.88;;;23.27;;
20739;SDS011;10530;49.968;19.844;2023-01-08T20:25:11;82.20;;;25.70;;
20739;SDS011;10530;49.968;19.844;2023-01-08T20:30:14;90.68;;;29.80;;
20739;SDS011;10530;49.968;19.844;2023-01-08T20:35:17;61.13;;;22.20;;
20739;SDS011;10530;49.968;19.844;2023-01-08T20:40:20;67.05;;;22.48;;
20739;SDS011;10530;49.968;19.844;2023-01-08T20:45:23;83.80;;;32.65;;
20739;SDS011;10530;49.968;19.844;2023-01-08T20:50:26;95.73;;;36.17;;
20739;SDS011;10530;49.968;19.844;2023-01-08T20:55:29;89.13;;;31.98;;
20739;SDS011;10530;49.968;19.844;2023-01-08T21:00:32;81.07;;;28.70;;
20739;SDS011;10530;49.968;19.844;2023-01-08T21:05:34;60.13;;;19.25;;
20739;SDS011;10530;49.968;19.844;2023-01-08T21:10:38;50.55;;;20.73;;
20739;SDS011;10530;49.968;19.844;2023-01-08T21:15:41;61.63;;;22.63;;
20739;SDS011;10530;49.968;19.844;2023-01-08T21:20:44;55.80;;;22.88;;
20739;SDS011;10530;49.968;19.844;2023-01-08T21:25:47;82.00;;;29.97;;
20739;SDS011;10530;49.968;19.844;2023-01-08T21:31:01;68.97;;;26.75;;
20739;SDS011;10530;49.968;19.844;2023-01-08T21:36:07;71.20;;;27.20;;
20739;SDS011;10530;49.968;19.844;2023-01-08T21:41:12;65.83;;;24.70;;
20739;SDS011;10530;49.968;19.844;2023-01-08T21:46:37;78.28;;;29.92;;
20739;SDS011;10530;49.968;19.844;2023-01-08T21:51:40;70.47;;;28.87;;
20739;SDS011;10530;49.968;19.844;2023-01-08T21:57:12;73.60;;;27.48;;
20739;SDS011;10530;49.968;19.844;2023-01-08T22:02:15;88.88;;;29.98;;
20739;SDS011;10530;49.968;19.844;2023-01-08T22:07:19;64.13;;;24.33;;
20739;SDS011;10530;49.968;19.844;2023-01-08T22:12:22;82.57;;;28.70;;
20739;SDS011;10530;49.968;19.844;2023-01-08T22:17:27;71.30;;;26.80;;
20739;SDS011;10530;49.968;19.844;2023-01-08T22:22:31;80.68;;;26.23;;
20739;SDS011;10530;49.968;19.844;2023-01-08T22:27:34;56.40;;;20.75;;
20739;SDS011;10530;49.968;19.844;2023-01-08T22:32:37;62.07;;;22.77;;
20739;SDS011;10530;49.968;19.844;2023-01-08T22:37:40;48.05;;;20.15;;
20739;SDS011;10530;49.968;19.844;2023-01-08T22:42:44;52.47;;;23.20;;
20739;SDS011;10530;49.968;19.844;2023-01-08T22:47:47;58.90;;;22.73;;
20739;SDS011;10530;49.968;19.844;2023-01-08T22:52:50;60.33;;;21.67;;
20739;SDS011;10530;49.968;19.844;2023-01-08T22:57:52;46.57;;;20.37;;
20739;SDS011;10530;49.968;19.844;2023-01-08T23:02:55;58.00;;;22.30;;
20739;SDS011;10530;49.968;19.844;2023-01-08T23:07:58;72.80;;;24.70;;
20739;SDS011;10530;49.968;19.844;2023-01-08T23:13:01;60.63;;;24.00;;
20739;SDS011;10530;49.968;19.844;2023-01-08T23:18:04;58.55;;;22.38;;
20739;SDS011;10530;49.968;19.844;2023-01-08T23:23:07;47.93;;;16.43;;
20739;SDS011;10530;49.968;19.844;2023-01-08T23:28:10;51.50;;;22.23;;
20739;SDS011;10530;49.968;19.844;2023-01-08T23:33:13;48.57;;;20.23;;
20739;SDS011;10530;49.968;19.844;2023-01-08T23:38:16;52.08;;;18.75;;
20739;SDS011;10530;49.968;19.844;2023-01-08T23:43:18;53.05;;;19.77;;
20739;SDS011;10530;49.968;19.844;2023-01-08T23:48:21;59.53;;;21.37;;
20739;SDS011;10530;49.968;19.844;2023-01-08T23:53:24;42.55;;;17.30;;
20739;SDS011;10530;49.968;19.844;2023-01-08T23:58:27;45.83;;;18.73;;
